Time;durP1;ratioP1;P1;durP2;ratioP2;P2;SDS_P1;SDS_P2;PMS_P1;PMS_P2;Temp;Humidity;BMP_temperature;BMP_pressure;BME280_temperature;BME280_humidity;BME280_pressure;Samples;Min_cycle;Max_cycle;Signal;HPM_P1;HPM_P2
2023/10/25 00:04:00;;;;;;;56.83;38.57;;;11.60;99.90;;;;;;8328186;28;20190;-66
2023/10/25 00:08:01;;;;;;;56.13;37.83;;;11.60;99.90;;;;;;8328229;28;20206;-66
2023/10/25 00:12:02;;;;;;;57.90;37.23;;;11.70;99.90;;;;;;8322608;28;20190;-66
2023/10/25 00:16:03;;;;;;;53.67;36.87;;;11.60;99.90;;;;;;8324382;28;20185;-65
2023/10/25 00:20:05;;;;;;;63.03;37.67;;;11.60;99.90;;;;;;8325792;28;20214;-66
2023/10/25 00:24:06;;;;;;;59.33;37.43;;;11.70;99.90;;;;;;8321158;28;20182;-62
2023/10/25 00:28:07;;;;;;;54.10;36.57;;;11.70;99.90;;;;;;8325349;28;20198;-62
2023/10/25 00:32:14;;;;;;;56.23;35.03;;;11.70;99.90;;;;;;8320467;28;20239;-62
2023/10/25 00:36:15;;;;;;;54.17;36.23;;;11.70;99.90;;;;;;8326567;28;20260;-65
2023/10/25 00:40:16;;;;;;;55.10;35.43;;;11.70;99.90;;;;;;8324716;28;20178;-66
2023/10/25 00:44:17;;;;;;;48.53;33.70;;;11.70;99.90;;;;;;8323769;28;20197;-66
2023/10/25 00:48:18;;;;;;;46.30;30.70;;;11.70;99.90;;;;;;8322697;28;20215;-67
2023/10/25 00:52:19;;;;;;;48.27;30.67;;;11.70;99.90;;;;;;8327548;28;20269;-66
2023/10/25 00:56:23;;;;;;;43.67;28.60;;;11.70;99.90;;;;;;8321501;28;20197;-66
2023/10/25 01:00:25;;;;;;;39.10;28.93;;;11.70;99.90;;;;;;8334323;28;20313;-67
2023/10/25 01:04:28;;;;;;;40.87;28.87;;;11.70;99.90;;;;;;8327327;28;20187;-66
2023/10/25 01:08:29;;;;;;;40.43;28.33;;;11.70;99.90;;;;;;8329946;28;20222;-64
2023/10/25 01:12:34;;;;;;;42.87;28.03;;;11.70;99.90;;;;;;8335862;28;20216;-66
2023/10/25 01:16:35;;;;;;;41.23;26.23;;;11.70;99.90;;;;;;8332250;28;20325;-67
2023/10/25 01:20:38;;;;;;;35.87;26.03;;;11.70;99.90;;;;;;8348426;28;20186;-65
2023/10/25 01:24:38;;;;;;;38.77;25.37;;;11.60;99.90;;;;;;8334536;28;20217;-66
2023/10/25 01:28:39;;;;;;;42.80;27.50;;;11.60;99.90;;;;;;8333408;28;20185;-67
2023/10/25 01:32:40;;;;;;;36.83;26.00;;;11.70;99.90;;;;;;8327975;28;20265;-64
2023/10/25 01:36:40;;;;;;;42.37;27.23;;;11.70;99.90;;;;;;8333154;28;20193;-66
2023/10/25 01:40:41;;;;;;;40.67;27.33;;;11.70;99.90;;;;;;8330490;28;20198;-67
2023/10/25 01:44:42;;;;;;;39.40;27.27;;;11.60;99.90;;;;;;8336696;28;20281;-66
2023/10/25 01:48:44;;;;;;;43.67;28.30;;;11.60;99.90;;;;;;8335794;28;20188;-66
2023/10/25 01:52:45;;;;;;;42.40;28.73;;;11.60;99.90;;;;;;8332371;28;20182;-66
2023/10/25 01:56:46;;;;;;;41.07;27.87;;;11.70;99.90;;;;;;8345480;28;20210;-67
2023/10/25 02:00:47;;;;;;;39.77;29.43;;;11.60;99.90;;;;;;8334867;28;20214;-66
2023/10/25 02:04:47;;;;;;;39.07;28.07;;;11.70;99.90;;;;;;8329215;28;20229;-65
2023/10/25 02:08:48;;;;;;;40.27;26.90;;;11.70;99.90;;;;;;8329642;28;20193;-66
2023/10/25 02:12:49;;;;;;;41.13;28.37;;;11.70;99.90;;;;;;8330802;28;20558;-67
2023/10/25 02:16:50;;;;;;;38.60;24.07;;;11.70;99.90;;;;;;8330858;28;20300;-67
2023/10/25 02:20:51;;;;;;;39.37;25.37;;;11.70;99.90;;;;;;8328399;28;20186;-65
2023/10/25 02:24:53;;;;;;;37.67;25.57;;;11.70;99.90;;;;;;8332230;28;20182;-67
2023/10/25 02:28:54;;;;;;;35.83;24.80;;;11.70;99.90;;;;;;8326132;28;20185;-67
2023/10/25 02:32:54;;;;;;;34.80;22.80;;;11.70;99.90;;;;;;8331209;28;20213;-65
2023/10/25 02:36:55;;;;;;;30.00;20.33;;;11.70;99.90;;;;;;8324437;28;20210;-65
2023/10/25 02:40:56;;;;;;;29.77;19.63;;;11.70;99.90;;;;;;8336215;28;20240;-66
2023/10/25 02:44:57;;;;;;;28.77;19.50;;;11.70;99.90;;;;;;8332329;28;20212;-66
2023/10/25 02:48:58;;;;;;;28.40;19.07;;;11.70;99.90;;;;;;8330458;28;20273;-68
2023/10/25 02:52:59;;;;;;;23.60;15.87;;;11.70;99.90;;;;;;8334088;28;20239;-68
2023/10/25 02:56:59;;;;;;;18.70;12.80;;;11.70;99.90;;;;;;8324926;28;20242;-68
2023/10/25 03:01:01;;;;;;;10.93;9.57;;;11.70;99.90;;;;;;8358914;28;20336;-68
2023/10/25 03:05:02;;;;;;;10.00;8.20;;;11.70;99.90;;;;;;8333604;28;20209;-69
2023/10/25 03:09:05;;;;;;;10.77;6.77;;;11.70;99.90;;;;;;8344693;28;20187;-67
2023/10/25 03:13:06;;;;;;;9.20;6.80;;;11.70;99.90;;;;;;8339129;28;20479;-68
2023/10/25 03:17:06;;;;;;;5.67;5.10;;;11.70;99.90;;;;;;8328743;28;20468;-67
2023/10/25 03:21:07;;;;;;;5.03;4.53;;;11.70;99.90;;;;;;8328323;28;20194;-65
2023/10/25 03:25:08;;;;;;;4.83;4.43;;;11.70;99.90;;;;;;8326955;28;20236;-67
2023/10/25 03:29:11;;;;;;;6.60;5.27;;;11.70;99.90;;;;;;8325743;28;20190;-67
2023/10/25 03:33:12;;;;;;;6.10;5.50;;;11.70;99.90;;;;;;8329370;28;20190;-64
2023/10/25 03:37:13;;;;;;;6.37;5.77;;;11.70;99.90;;;;;;8332739;28;20210;-67
2023/10/25 03:41:14;;;;;;;8.43;6.40;;;11.70;99.90;;;;;;8320291;28;20557;-66
2023/10/25 03:45:15;;;;;;;8.33;7.27;;;11.70;99.90;;;;;;8325658;28;20182;-65
2023/10/25 03:49:16;;;;;;;7.00;6.27;;;11.70;99.90;;;;;;8331773;28;20189;-66
2023/10/25 03:53:17;;;;;;;7.90;6.63;;;11.70;99.90;;;;;;8322395;28;20322;-62
2023/10/25 03:57:18;;;;;;;7.70;7.00;;;11.70;99.90;;;;;;8329262;28;20218;-60
2023/10/25 04:01:19;;;;;;;8.47;7.57;;;11.70;99.90;;;;;;8316884;28;20226;-62
2023/10/25 04:05:20;;;;;;;8.17;7.37;;;11.70;99.90;;;;;;8322452;28;20179;-63
2023/10/25 04:09:21;;;;;;;8.73;7.83;;;11.70;99.90;;;;;;8322373;28;20268;-63
2023/10/25 04:13:22;;;;;;;8.50;7.70;;;11.70;99.90;;;;;;8323458;28;20182;-62
2023/10/25 04:17:23;;;;;;;10.30;8.17;;;11.70;99.90;;;;;;8319928;28;20305;-64
2023/10/25 04:21:23;;;;;;;9.37;8.37;;;11.70;99.90;;;;;;8321755;28;20182;-62
2023/10/25 04:25:24;;;;;;;10.30;8.10;;;11.60;99.90;;;;;;8319633;28;20200;-61
2023/10/25 04:29:25;;;;;;;9.10;8.20;;;11.70;99.90;;;;;;8337704;28;20186;-60
2023/10/25 04:33:26;;;;;;;10.07;9.07;;;11.60;99.90;;;;;;8324956;28;20178;-62
2023/10/25 04:37:27;;;;;;;8.43;7.60;;;11.60;99.90;;;;;;8325472;28;20203;-63
2023/10/25 04:41:28;;;;;;;13.77;6.87;;;11.60;99.90;;;;;;8322590;28;20277;-60
2023/10/25 04:45:29;;;;;;;8.60;7.70;;;11.60;99.90;;;;;;8317391;28;20283;-63
2023/10/25 04:49:29;;;;;;;6.63;6.03;;;11.60;99.90;;;;;;8319750;28;20239;-62
2023/10/25 04:53:30;;;;;;;7.13;6.40;;;11.60;99.90;;;;;;8324237;28;20215;-61
2023/10/25 04:57:33;;;;;;;7.00;6.00;;;11.60;99.90;;;;;;8321590;28;20210;-63
2023/10/25 05:01:34;;;;;;;6.03;5.10;;;11.60;99.90;;;;;;8324348;28;20256;-63
2023/10/25 05:05:38;;;;;;;5.53;4.60;;;11.50;99.90;;;;;;8321858;28;20173;-63
2023/10/25 05:09:40;;;;;;;5.57;5.07;;;11.50;99.90;;;;;;8327045;28;20256;-62
2023/10/25 05:13:41;;;;;;;5.50;5.00;;;11.50;99.90;;;;;;8329214;28;20270;-64
2023/10/25 05:17:45;;;;;;;5.47;4.97;;;11.50;99.90;;;;;;8325345;28;20281;-61
2023/10/25 05:21:49;;;;;;;5.87;5.37;;;11.40;99.90;;;;;;8319820;28;20336;-63
2023/10/25 05:25:50;;;;;;;5.23;4.73;;;11.40;99.90;;;;;;8322820;28;20265;-71
2023/10/25 05:29:51;;;;;;;7.40;5.67;;;11.40;99.90;;;;;;8322515;28;20183;-67
2023/10/25 05:33:52;;;;;;;6.60;5.97;;;11.40;99.90;;;;;;8321154;28;20190;-69
2023/10/25 05:37:53;;;;;;;8.37;6.23;;;11.40;99.90;;;;;;8319145;28;20504;-69
2023/10/25 05:41:55;;;;;;;6.27;5.67;;;11.40;99.90;;;;;;8325834;28;20209;-66
2023/10/25 05:45:56;;;;;;;5.73;5.13;;;11.40;99.90;;;;;;8320430;28;20185;-66
2023/10/25 05:49:57;;;;;;;7.97;5.57;;;11.30;99.90;;;;;;8323005;28;20186;-66
2023/10/25 05:54:00;;;;;;;7.27;6.37;;;11.40;99.90;;;;;;8325019;28;20359;-68
2023/10/25 05:58:00;;;;;;;6.53;5.63;;;11.40;99.90;;;;;;8320421;28;20210;-67
2023/10/25 06:02:01;;;;;;;6.20;5.70;;;11.30;99.90;;;;;;8320632;28;20297;-66
2023/10/25 06:06:03;;;;;;;9.07;6.30;;;11.40;99.90;;;;;;8331523;28;20432;-66
2023/10/25 06:10:05;;;;;;;7.80;6.57;;;11.30;99.90;;;;;;8320848;28;20484;-67
2023/10/25 06:14:08;;;;;;;7.37;6.60;;;11.40;99.90;;;;;;8321613;28;20186;-66
2023/10/25 06:18:10;;;;;;;6.00;5.50;;;11.40;99.90;;;;;;8320170;28;20475;-67
2023/10/25 06:22:11;;;;;;;8.17;7.37;;;11.40;99.90;;;;;;8329615;28;20182;-66
2023/10/25 06:26:11;;;;;;;7.60;6.90;;;11.40;99.90;;;;;;8321474;28;20361;-67
2023/10/25 06:30:12;;;;;;;7.63;6.93;;;11.40;99.90;;;;;;8322830;28;20419;-67
2023/10/25 06:34:13;;;;;;;8.87;6.43;;;11.30;99.90;;;;;;8326543;28;20302;-62
2023/10/25 06:38:14;;;;;;;8.73;5.90;;;11.30;99.90;;;;;;8322677;28;20205;-64
2023/10/25 06:42:15;;;;;;;7.03;6.07;;;11.30;99.90;;;;;;8323645;28;20183;-65
2023/10/25 06:46:16;;;;;;;8.37;6.30;;;11.30;99.90;;;;;;8325234;28;20174;-65
2023/10/25 06:50:17;;;;;;;7.83;6.37;;;11.40;99.90;;;;;;8329659;28;20503;-64
2023/10/25 06:54:18;;;;;;;7.40;5.73;;;11.60;99.90;;;;;;8326679;28;20277;-64
2023/10/25 06:58:19;;;;;;;6.23;4.97;;;11.80;99.90;;;;;;8322300;28;20596;-64
2023/10/25 07:02:38;;;;;;;5.93;5.20;;;12.10;99.90;;;;;;8319449;28;20447;-65
2023/10/25 07:06:40;;;;;;;4.93;4.53;;;12.30;99.90;;;;;;8321487;28;20185;-64
2023/10/25 07:10:41;;;;;;;5.47;3.90;;;12.50;99.90;;;;;;8323099;28;20261;-65
2023/10/25 07:14:43;;;;;;;4.10;3.70;;;12.60;99.90;;;;;;8328169;28;20440;-65
2023/10/25 07:18:45;;;;;;;3.93;3.53;;;12.60;99.90;;;;;;8322126;28;20217;-67
2023/10/25 07:22:46;;;;;;;4.30;3.77;;;12.60;99.90;;;;;;8325212;28;20243;-66
2023/10/25 07:26:46;;;;;;;4.37;4.00;;;12.50;99.90;;;;;;8323214;28;20188;-67
2023/10/25 07:30:47;;;;;;;5.03;3.90;;;12.50;99.90;;;;;;8322520;28;20206;-66
2023/10/25 07:34:49;;;;;;;4.83;4.33;;;12.40;99.90;;;;;;8320524;28;20269;-64
2023/10/25 07:38:49;;;;;;;5.03;4.53;;;12.30;99.90;;;;;;8337646;28;20210;-66
2023/10/25 07:42:50;;;;;;;5.30;4.67;;;12.20;99.90;;;;;;8322423;28;20194;-66
2023/10/25 07:46:51;;;;;;;5.70;5.20;;;12.20;99.90;;;;;;8323867;28;20239;-65
2023/10/25 07:50:51;;;;;;;5.70;5.20;;;12.10;99.90;;;;;;8320521;28;20218;-64
2023/10/25 07:54:52;;;;;;;9.97;6.07;;;12.10;99.90;;;;;;8324144;28;20273;-63
2023/10/25 07:58:53;;;;;;;6.30;5.70;;;12.10;99.90;;;;;;8327497;28;20273;-63
2023/10/25 08:02:54;;;;;;;6.70;6.10;;;12.10;99.90;;;;;;8320622;28;20251;-66
2023/10/25 08:06:56;;;;;;;7.93;5.80;;;12.10;99.90;;;;;;8321334;28;20186;-67
2023/10/25 08:11:05;;;;;;;5.67;5.17;;;12.10;99.90;;;;;;8320483;28;20189;-67
2023/10/25 08:15:07;;;;;;;6.07;4.70;;;12.20;99.90;;;;;;8322289;28;20194;-63
2023/10/25 08:19:08;;;;;;;6.77;4.70;;;12.30;99.90;;;;;;8323764;28;20206;-64
2023/10/25 08:23:09;;;;;;;5.50;5.00;;;12.30;99.90;;;;;;8321534;28;20398;-63
2023/10/25 08:27:09;;;;;;;5.50;4.63;;;12.60;99.90;;;;;;8322846;28;20189;-64
2023/10/25 08:31:12;;;;;;;5.03;4.47;;;12.70;99.90;;;;;;8321579;28;20591;-66
2023/10/25 08:35:12;;;;;;;4.83;4.33;;;12.70;99.90;;;;;;8323008;28;20277;-64
2023/10/25 08:39:13;;;;;;;4.57;3.70;;;12.80;99.90;;;;;;8322906;28;20214;-64
2023/10/25 08:43:16;;;;;;;4.37;3.97;;;12.80;99.90;;;;;;8317754;28;20255;-64
2023/10/25 08:47:18;;;;;;;4.30;3.90;;;12.90;99.90;;;;;;8321468;28;20303;-63
2023/10/25 08:51:19;;;;;;;5.23;3.70;;;13.30;99.90;;;;;;8324308;28;20199;-64
2023/10/25 08:55:20;;;;;;;4.07;3.67;;;13.50;99.90;;;;;;8317971;28;20202;-65
2023/10/25 08:59:21;;;;;;;4.40;4.00;;;13.50;99.90;;;;;;8319585;28;20213;-65
2023/10/25 09:03:33;;;;;;;7.67;4.40;;;13.20;99.90;;;;;;8323260;28;20186;-63
2023/10/25 09:07:36;;;;;;;6.60;4.13;;;12.90;99.90;;;;;;8325965;28;20192;-66
2023/10/25 09:11:39;;;;;;;5.10;3.90;;;12.80;99.90;;;;;;8324640;28;20186;-66
2023/10/25 09:15:40;;;;;;;4.60;3.80;;;12.80;99.90;;;;;;8318649;28;20237;-67
2023/10/25 09:19:45;;;;;;;4.53;4.10;;;12.90;99.90;;;;;;8326162;28;20305;-69
2023/10/25 09:23:54;;;;;;;4.77;3.80;;;13.10;99.90;;;;;;8320370;28;20585;-67
2023/10/25 09:27:55;;;;;;;3.63;3.33;;;13.10;99.90;;;;;;8321471;28;20197;-69
2023/10/25 09:32:08;;;;;;;5.20;3.30;;;13.30;99.90;;;;;;8329689;28;20181;-67
2023/10/25 09:36:09;;;;;;;3.17;2.87;;;13.60;99.90;;;;;;8327672;28;20237;-69
2023/10/25 09:40:10;;;;;;;3.23;2.60;;;13.80;99.90;;;;;;8343718;28;20242;-70
2023/10/25 09:44:18;;;;;;;4.53;2.77;;;13.80;99.90;;;;;;8326932;28;20169;-69
2023/10/25 09:48:20;;;;;;;3.00;2.63;;;13.80;99.90;;;;;;8327670;28;20206;-70
2023/10/25 09:52:27;;;;;;;4.20;2.37;;;13.60;99.90;;;;;;8329465;28;20201;-68
2023/10/25 09:56:28;;;;;;;2.77;2.57;;;13.50;99.90;;;;;;8319590;28;20202;-69
2023/10/25 10:00:29;;;;;;;2.83;2.63;;;13.70;99.90;;;;;;8328966;28;20510;-69
2023/10/25 10:04:52;;;;;;;5.93;3.27;;;14.00;99.90;;;;;;8330435;28;20406;-68
2023/10/25 10:08:59;;;;;;;3.77;3.00;;;14.50;99.90;;;;;;8324741;28;20216;-69
2023/10/25 10:13:13;;;;;;;3.37;3.07;;;14.20;99.90;;;;;;8324307;28;20641;-69
2023/10/25 10:17:16;;;;;;;3.70;3.40;;;13.90;99.90;;;;;;8326181;28;20198;-67
2023/10/25 10:21:17;;;;;;;3.20;2.83;;;13.70;99.90;;;;;;8328109;28;20178;-68
2023/10/25 10:25:45;;;;;;;5.23;3.20;;;13.60;99.90;;;;;;8321630;28;20208;-67
2023/10/25 10:29:47;;;;;;;3.50;3.20;;;13.40;99.90;;;;;;8324610;28;20195;-68
2023/10/25 10:33:49;;;;;;;3.10;2.80;;;13.40;99.90;;;;;;8330507;28;20182;-66
2023/10/25 10:37:55;;;;;;;3.40;2.80;;;13.60;99.90;;;;;;8325647;28;20297;-67
2023/10/25 10:42:01;;;;;;;3.40;2.77;;;13.80;99.90;;;;;;8332476;28;20269;-68
2023/10/25 10:46:02;;;;;;;3.13;2.50;;;14.00;99.90;;;;;;8327428;28;20247;-68
2023/10/25 10:50:10;;;;;;;3.03;2.53;;;14.40;99.90;;;;;;8320115;28;20188;-66
2023/10/25 10:54:11;;;;;;;2.57;2.37;;;14.40;99.90;;;;;;8327269;28;20265;-66
2023/10/25 10:58:12;;;;;;;3.67;2.67;;;14.20;99.90;;;;;;8322380;28;20221;-67
2023/10/25 11:02:13;;;;;;;3.07;2.63;;;14.40;99.90;;;;;;8322989;28;20202;-67
2023/10/25 11:06:14;;;;;;;3.97;2.40;;;14.60;99.90;;;;;;8325296;28;20182;-68
2023/10/25 11:10:15;;;;;;;2.27;2.03;;;14.60;1.00;;;;;;8326237;28;20197;-68
2023/10/25 11:14:16;;;;;;;1.80;1.70;;;14.50;99.90;;;;;;8323026;28;20191;-68
2023/10/25 11:18:17;;;;;;;2.93;2.10;;;14.20;99.90;;;;;;8330078;28;20190;-70
2023/10/25 11:22:18;;;;;;;2.03;1.83;;;14.10;99.90;;;;;;8321077;28;20185;-68
2023/10/25 11:26:19;;;;;;;2.00;1.80;;;14.20;99.90;;;;;;8322527;28;20183;-69
2023/10/25 11:30:20;;;;;;;1.20;1.10;;;14.50;99.90;;;;;;8322600;28;20214;-69
2023/10/25 11:34:21;;;;;;;1.33;1.23;;;15.00;99.90;;;;;;8321800;28;20201;-68
2023/10/25 11:38:25;;;;;;;2.20;1.00;;;15.40;99.80;;;;;;8323639;28;20202;-66
2023/10/25 11:42:30;;;;;;;1.83;1.00;;;15.60;51.30;;;;;;8336041;28;20387;-65
2023/10/25 11:46:35;;;;;;;1.20;1.10;;;15.80;28.50;;;;;;8336814;28;20186;-67
2023/10/25 11:50:36;;;;;;;2.00;1.23;;;15.50;10.40;;;;;;8318809;28;20193;-65
2023/10/25 11:54:37;;;;;;;1.80;1.47;;;15.60;16.20;;;;;;8317927;28;20198;-68
2023/10/25 11:58:38;;;;;;;2.10;1.47;;;15.50;2.90;;;;;;8318895;28;20255;-68
2023/10/25 12:02:38;;;;;;;1.63;1.53;;;15.50;9.10;;;;;;8319219;28;20186;-67
2023/10/25 12:06:39;;;;;;;4.80;1.37;;;15.40;1.00;;;;;;8327829;28;20181;-67
2023/10/25 12:10:40;;;;;;;1.83;1.57;;;15.30;1.00;;;;;;8324924;28;20221;-68
2023/10/25 12:14:41;;;;;;;2.07;1.80;;;15.00;1.00;;;;;;8321172;28;20313;-66
2023/10/25 12:18:41;;;;;;;2.33;1.70;;;14.60;1.00;;;;;;8328582;28;20305;-66
2023/10/25 12:22:42;;;;;;;3.77;1.50;;;14.20;23.20;;;;;;8320250;28;20178;-68
2023/10/25 12:26:43;;;;;;;1.93;1.73;;;14.10;34.10;;;;;;8321902;28;20194;-66
2023/10/25 12:30:43;;;;;;;1.47;1.20;;;14.30;48.90;;;;;;8316953;28;20277;-65
2023/10/25 12:34:44;;;;;;;3.27;1.63;;;14.80;52.20;;;;;;8317438;28;20189;-68
2023/10/25 12:38:45;;;;;;;2.50;1.30;;;15.20;31.00;;;;;;8319309;28;20217;-66
2023/10/25 12:42:47;;;;;;;1.70;1.43;;;15.40;17.50;;;;;;8320897;28;20391;-68
2023/10/25 12:46:48;;;;;;;2.43;1.40;;;15.60;5.80;;;;;;8321587;28;20183;-68
2023/10/25 12:50:48;;;;;;;2.57;1.40;;;15.80;1.00;;;;;;8319290;28;20200;-67
2023/10/25 12:54:49;;;;;;;2.23;1.60;;;16.00;1.00;;;;;;8320717;28;20286;-66
2023/10/25 12:58:50;;;;;;;3.07;1.20;;;15.50;1.00;;;;;;8322432;28;20220;-66
2023/10/25 13:02:51;;;;;;;1.57;1.20;;;15.10;1.00;;;;;;8322224;28;20411;-66
2023/10/25 13:06:52;;;;;;;1.33;1.23;;;15.20;1.00;;;;;;8320255;28;20201;-66
2023/10/25 13:10:53;;;;;;;2.20;1.30;;;15.10;2.70;;;;;;8325706;28;20197;-67
2023/10/25 13:14:53;;;;;;;1.23;0.90;;;15.00;10.00;;;;;;8331657;28;20182;-66
2023/10/25 13:18:54;;;;;;;1.83;1.20;;;14.90;16.40;;;;;;8324088;28;20214;-66
2023/10/25 13:22:58;;;;;;;1.93;1.00;;;14.80;11.80;;;;;;8327680;28;20295;-64
2023/10/25 13:27:00;;;;;;;2.70;1.00;;;14.70;15.30;;;;;;8323674;28;20194;-64
2023/10/25 13:31:02;;;;;;;1.10;0.90;;;14.60;19.20;;;;;;8340220;28;20192;-64
2023/10/25 13:35:03;;;;;;;2.80;1.10;;;14.50;27.40;;;;;;8323951;28;20198;-62
2023/10/25 13:39:04;;;;;;;1.70;1.17;;;14.40;33.10;;;;;;8334482;28;20224;-64
2023/10/25 13:43:04;;;;;;;2.10;1.00;;;14.20;30.20;;;;;;8324436;28;20213;-64
2023/10/25 13:47:05;;;;;;;2.40;1.00;;;14.00;32.60;;;;;;8327339;28;20193;-62
2023/10/25 13:51:08;;;;;;;1.20;0.90;;;13.80;40.40;;;;;;8327607;28;20186;-62
2023/10/25 13:55:09;;;;;;;1.73;0.87;;;13.80;58.30;;;;;;8329431;28;20209;-62
2023/10/25 13:59:10;;;;;;;1.40;1.00;;;13.70;68.00;;;;;;8326842;28;20255;-64
2023/10/25 14:03:12;;;;;;;1.77;1.00;;;13.60;69.40;;;;;;8325919;28;20186;-63
2023/10/25 14:07:12;;;;;;;2.20;1.00;;;13.50;88.00;;;;;;8323487;28;20214;-64
2023/10/25 14:11:13;;;;;;;2.60;0.97;;;13.50;95.90;;;;;;8324499;28;20178;-63
2023/10/25 14:15:14;;;;;;;5.23;1.40;;;13.50;99.90;;;;;;8324826;28;20750;-63
2023/10/25 14:19:17;;;;;;;3.23;1.00;;;13.40;99.90;;;;;;8325609;28;20252;-63
2023/10/25 14:23:18;;;;;;;1.23;1.00;;;13.30;99.90;;;;;;8326005;28;20196;-63
2023/10/25 14:27:18;;;;;;;1.80;1.00;;;13.20;99.90;;;;;;8341569;28;20225;-62
2023/10/25 14:31:20;;;;;;;1.80;0.90;;;13.10;99.90;;;;;;8327711;28;20217;-62
2023/10/25 14:35:20;;;;;;;1.83;0.70;;;13.00;99.90;;;;;;8322147;28;20190;-67
2023/10/25 14:39:21;;;;;;;2.10;1.00;;;12.90;99.90;;;;;;8325000;28;20299;-66
2023/10/25 14:43:22;;;;;;;1.83;0.90;;;12.80;99.90;;;;;;8326673;28;20179;-62
2023/10/25 14:47:22;;;;;;;1.33;1.03;;;12.80;99.90;;;;;;8321916;28;20186;-62
2023/10/25 14:51:26;;;;;;;2.30;1.10;;;12.70;99.90;;;;;;8326200;28;20197;-61
2023/10/25 14:55:27;;;;;;;1.10;0.90;;;12.70;99.90;;;;;;8341153;28;20201;-63
2023/10/25 14:59:31;;;;;;;1.13;1.03;;;12.60;99.90;;;;;;8323580;28;20223;-61
2023/10/25 15:03:32;;;;;;;1.93;0.70;;;12.60;99.90;;;;;;8324049;28;20253;-61
2023/10/25 15:07:34;;;;;;;1.37;1.10;;;12.60;1.00;;;;;;8322308;28;20194;-62
2023/10/25 15:11:34;;;;;;;1.10;1.00;;;12.60;1.00;;;;;;8328407;28;20189;-63
2023/10/25 15:15:35;;;;;;;1.60;0.90;;;12.50;1.00;;;;;;8321287;28;20189;-61
2023/10/25 15:19:37;;;;;;;1.03;0.80;;;12.50;1.00;;;;;;8324085;28;20228;-63
2023/10/25 15:23:37;;;;;;;5.70;1.97;;;12.30;1.00;;;;;;8321210;28;20183;-63
2023/10/25 15:27:38;;;;;;;1.87;1.07;;;12.20;1.00;;;;;;8325247;28;20204;-62
2023/10/25 15:31:40;;;;;;;1.87;1.27;;;12.00;1.00;;;;;;8319859;28;20182;-62
2023/10/25 15:35:40;;;;;;;7.63;1.60;;;11.70;1.00;;;;;;8327546;28;20246;-62
2023/10/25 15:39:41;;;;;;;4.17;1.57;;;11.50;1.00;;;;;;8321689;28;20213;-63
2023/10/25 15:43:43;;;;;;;6.70;1.63;;;11.20;6.50;;;;;;8325054;28;20426;-66
2023/10/25 15:47:44;;;;;;;3.33;1.77;;;11.00;99.90;;;;;;8322740;28;20207;-67
2023/10/25 15:51:44;;;;;;;1.50;1.30;;;10.70;99.90;;;;;;8322840;28;20184;-66
2023/10/25 15:55:48;;;;;;;1.90;1.33;;;10.40;99.90;;;;;;8321332;28;20200;-62
2023/10/25 15:59:49;;;;;;;6.53;2.03;;;10.20;99.90;;;;;;8322759;28;20231;-62
2023/10/25 16:03:50;;;;;;;3.13;1.87;;;9.90;1.00;;;;;;8333607;28;20189;-67
2023/10/25 16:07:52;;;;;;;2.07;1.40;;;9.70;1.00;;;;;;8324243;28;20499;-69
2023/10/25 16:11:52;;;;;;;1.87;1.47;;;9.50;99.90;;;;;;8328746;28;20215;-69
2023/10/25 16:15:54;;;;;;;3.07;1.47;;;9.30;99.90;;;;;;8327193;28;20182;-65
2023/10/25 16:19:56;;;;;;;2.80;1.30;;;9.20;1.00;;;;;;8325747;28;20213;-68
2023/10/25 16:23:57;;;;;;;2.17;1.70;;;8.90;62.90;;;;;;8328018;28;20193;-69
2023/10/25 16:27:58;;;;;;;1.37;1.27;;;8.70;99.90;;;;;;8321335;28;20186;-67
2023/10/25 16:31:59;;;;;;;1.30;1.20;;;8.60;99.90;;;;;;8325779;28;20243;-67
2023/10/25 16:36:08;;;;;;;1.60;1.50;;;8.40;1.00;;;;;;8325770;28;20366;-66
2023/10/25 16:40:10;;;;;;;1.40;1.20;;;8.20;99.90;;;;;;8328075;28;20372;-68
2023/10/25 16:44:12;;;;;;;6.73;1.60;;;8.10;90.90;;;;;;8322116;28;20194;-69
2023/10/25 16:48:12;;;;;;;1.70;1.60;;;8.00;10.50;;;;;;8328309;28;20190;-67
2023/10/25 16:52:13;;;;;;;1.73;1.40;;;7.80;99.90;;;;;;8331413;28;20182;-67
2023/10/25 16:56:16;;;;;;;1.53;1.43;;;7.70;1.00;;;;;;8325724;28;20321;-65
2023/10/25 17:00:17;;;;;;;1.90;1.30;;;7.60;99.90;;;;;;8326016;28;20237;-66
2023/10/25 17:04:18;;;;;;;1.73;1.63;;;7.40;99.90;;;;;;8324647;28;20260;-67
2023/10/25 17:08:19;;;;;;;2.60;1.90;;;7.30;99.90;;;;;;8324742;28;20206;-68
2023/10/25 17:12:20;;;;;;;2.00;1.80;;;7.20;99.90;;;;;;8328323;28;20181;-65
2023/10/25 17:16:22;;;;;;;1.90;1.67;;;7.10;99.90;;;;;;8327305;28;20284;-68
2023/10/25 17:20:22;;;;;;;2.43;1.97;;;7.00;99.90;;;;;;8324711;28;20210;-68
2023/10/25 17:24:24;;;;;;;2.37;1.83;;;6.90;1.00;;;;;;8331968;28;20183;-68
2023/10/25 17:28:28;;;;;;;2.80;2.27;;;6.80;1.00;;;;;;8329112;28;20224;-66
2023/10/25 17:32:29;;;;;;;8.60;5.83;;;6.70;1.00;;;;;;8324969;28;20195;-68
2023/10/25 17:36:30;;;;;;;10.13;7.63;;;6.60;99.90;;;;;;8325342;28;20281;-68
2023/10/25 17:40:31;;;;;;;10.93;6.80;;;6.60;1.00;;;;;;8326171;28;20214;-66
2023/10/25 17:44:32;;;;;;;6.20;4.87;;;6.50;68.90;;;;;;8325218;28;20190;-66
2023/10/25 17:48:33;;;;;;;3.60;2.93;;;6.40;11.20;;;;;;8324244;28;20214;-65
2023/10/25 17:52:35;;;;;;;3.33;2.60;;;6.30;12.80;;;;;;8322252;28;20194;-64
2023/10/25 17:56:36;;;;;;;3.23;2.93;;;6.20;59.80;;;;;;8327690;28;20194;-67
2023/10/25 18:00:40;;;;;;;4.50;3.30;;;6.10;99.90;;;;;;8333021;28;20222;-68
2023/10/25 18:04:41;;;;;;;4.23;3.60;;;6.10;99.90;;;;;;8333940;28;20271;-68
2023/10/25 18:08:43;;;;;;;6.97;5.20;;;6.00;99.90;;;;;;8330657;28;20236;-68
2023/10/25 18:12:44;;;;;;;7.63;5.00;;;5.90;99.90;;;;;;8331081;28;20185;-66
2023/10/25 18:16:45;;;;;;;6.47;4.97;;;5.90;99.90;;;;;;8329670;28;20193;-68
2023/10/25 18:20:49;;;;;;;7.60;4.50;;;5.80;99.90;;;;;;8343405;28;20230;-67
2023/10/25 18:24:51;;;;;;;5.77;4.00;;;5.70;99.90;;;;;;8345697;28;20182;-68
2023/10/25 18:28:52;;;;;;;8.57;5.63;;;5.60;99.90;;;;;;8330077;28;20186;-67
2023/10/25 18:32:54;;;;;;;10.70;8.03;;;5.50;99.90;;;;;;8327653;28;20255;-68
2023/10/25 18:36:57;;;;;;;10.57;7.83;;;5.60;99.90;;;;;;8335754;28;20201;-67
2023/10/25 18:40:58;;;;;;;10.13;6.70;;;5.60;99.90;;;;;;8334698;28;20296;-68
2023/10/25 18:45:00;;;;;;;8.80;5.67;;;5.50;99.90;;;;;;8328372;28;20182;-60
2023/10/25 18:49:01;;;;;;;7.13;5.47;;;5.40;99.90;;;;;;8326092;28;20190;-62
2023/10/25 18:53:02;;;;;;;7.00;6.07;;;5.30;99.90;;;;;;8325908;28;20186;-59
2023/10/25 18:57:03;;;;;;;24.57;14.33;;;5.30;99.90;;;;;;8324594;28;20205;-60
2023/10/25 19:01:16;;;;;;;50.57;30.57;;;5.40;99.90;;;;;;8324505;28;20229;-62
2023/10/25 19:05:16;;;;;;;60.70;41.20;;;5.50;99.90;;;;;;8322788;28;20170;-61
2023/10/25 19:09:17;;;;;;;31.00;25.87;;;5.70;99.90;;;;;;8322743;28;20216;-60
2023/10/25 19:13:18;;;;;;;22.23;18.03;;;5.80;99.90;;;;;;8324920;28;20365;-60
2023/10/25 19:17:19;;;;;;;24.50;15.80;;;6.00;99.90;;;;;;8323883;28;20238;-61
2023/10/25 19:21:20;;;;;;;22.40;15.20;;;6.10;99.90;;;;;;8324305;28;20181;-59
2023/10/25 19:25:21;;;;;;;20.63;14.77;;;6.20;99.90;;;;;;8322657;28;20425;-61
2023/10/25 19:29:22;;;;;;;19.20;14.40;;;6.30;99.90;;;;;;8319768;28;20469;-59
2023/10/25 19:33:22;;;;;;;45.80;25.87;;;6.30;99.90;;;;;;8323304;28;20194;-68
2023/10/25 19:37:26;;;;;;;188.87;83.60;;;6.40;99.90;;;;;;8323076;28;20240;-68
2023/10/25 19:41:28;;;;;;;202.10;103.97;;;6.50;99.90;;;;;;8325448;28;20188;-68
2023/10/25 19:45:28;;;;;;;158.13;78.70;;;6.60;99.90;;;;;;8322021;28;20193;-61
2023/10/25 19:49:29;;;;;;;120.40;64.27;;;6.70;99.90;;;;;;8324752;28;20181;-61
2023/10/25 19:53:32;;;;;;;90.17;54.63;;;6.70;99.90;;;;;;8329386;28;20253;-68
2023/10/25 19:57:33;;;;;;;71.20;44.20;;;6.70;99.90;;;;;;8328775;28;20234;-68
2023/10/25 20:01:35;;;;;;;59.90;37.67;;;6.70;99.90;;;;;;8329793;28;20202;-68
2023/10/25 20:05:35;;;;;;;51.63;31.97;;;6.70;99.90;;;;;;8326651;28;20178;-61
2023/10/25 20:09:36;;;;;;;43.13;26.27;;;6.70;99.90;;;;;;8321531;28;20209;-60
2023/10/25 20:13:37;;;;;;;29.07;19.33;;;6.70;99.90;;;;;;8322173;28;20217;-61
2023/10/25 20:17:38;;;;;;;25.87;17.43;;;6.70;99.90;;;;;;8321563;28;20291;-60
2023/10/25 20:21:39;;;;;;;29.83;20.27;;;6.80;99.90;;;;;;8324013;28;20178;-61
2023/10/25 20:25:49;;;;;;;25.23;18.47;;;6.90;99.90;;;;;;8319477;28;20220;-61
2023/10/25 20:29:49;;;;;;;28.43;20.13;;;7.00;99.90;;;;;;8322083;28;20516;-61
2023/10/25 20:33:54;;;;;;;82.87;54.97;;;7.10;99.90;;;;;;8319344;28;20220;-62
2023/10/25 20:37:55;;;;;;;97.03;63.07;;;7.10;99.90;;;;;;8320056;28;20244;-61
2023/10/25 20:41:56;;;;;;;98.47;61.20;;;7.10;99.90;;;;;;8321712;28;20190;-61
2023/10/25 20:45:56;;;;;;;66.17;44.40;;;7.10;99.90;;;;;;8321909;28;20183;-61
2023/10/25 20:49:57;;;;;;;53.63;38.90;;;7.10;99.90;;;;;;8326502;28;20461;-60
2023/10/25 20:53:58;;;;;;;42.30;27.57;;;7.20;99.90;;;;;;8323802;28;20251;-61
2023/10/25 20:58:00;;;;;;;43.00;28.67;;;7.20;99.90;;;;;;8324612;28;20203;-61